Главная страница
METAR-TAF:

METAR-TAF

Аэропорты :

Трабзон, Турция

широта: 41-00N, долгота: 039-43E, высота над уровнем моря: 35 м

Текущие метеонаблюдения

Эта сводка был подготовлена 46 минут назад, в 18:50 UTC
Ветер 3 Узел от юго-западный, изменяющийся между юго-восточный и западный
Температура 9°C
Влажность 81%
Давление 1023 hPa
Видимость 10 км и более
Нет облачности ниже 1500 м, и нет кучево-дождевой облачности

METAR: LTCG 261850Z 23003KT 130V270 CAVOK 09/06 Q1023 NOSIG RMK RWY29 24003KT 210V010

Время: 22:36 (19:36 UTC)

Прогноз

Эта сводка был подготовлена 2 часа и 56 минут назад, в 16:40 UTC
Прогноз действительный с 26-го 18 UTC до 27-го 18 UTC
Ветер 2 Узел переменных направлений
Видимость 10 км и более
Нет облачности ниже 1500 м, и нет кучево-дождевой облачности
Вероятность 40%
С 26-го 22 UTC до 27-го 02 UTC
Видимость: 2000 м
Рассеянная облачность на высоте 400 фута
дымка

TAF: LTCG 261640Z 2618/2718 VRB02KT CAVOK PROB40 2622/2702 2000 BR BKN004

Метеонаблюдения и прогнозы для более 4000 аэропортов (сводки METAR и TAF).

Имеющиеся станции представлены на карте желтыми и красными точками.

Чтобы увидеть название станции, наведите на нее мышь.

Затем щелкните, чтобы увидеть метеонаблюдения и метеопрогнозы.

Управление картой: чтобы увеличить масштаб, щелкните зеленые кнопки с черным крестиком; чтобы уменьшить масштаб, щелкните зеленую кнопку с тире; для просмотра соседних карт щелкайте зеленые стрелки.


METAR-TAF: